Cele, Texas
Current Conditions -  °F | °C
As of 6:15 AM on Tuesday 27 Jan 2015 (Local Time) from KEDC Reporting Station
Clear Clear  
Wind Chill: 52°   Ceiling: Unl
Heat Index: 52°   Visibility: 10mi
Dew Point: 36°   Wind: 6mph
Humidity: 54%   Direction: 280°W
Pressure: 30.14"   Gusts: NA
Location:  30.352°N, 97.5205°W
Report Text: KEDC 271215Z AUTO 28005KT 10SM CLR 11/02 A3014 RMK AO2
Loading
Personal Weather Stations






























Interactive Weather Map New forecast layout! Learn more

10-Day Weather Forecast

Advertisements
Track Severe Weather on mobile